createdAt,value
2023-05-20T00:00:24.112Z,100693.19
2023-05-20T00:02:51.160Z,100695.60
2023-05-20T00:05:18.111Z,100694.63
2023-05-20T00:07:45.270Z,100693.63
2023-05-20T00:10:12.166Z,100694.18
2023-05-20T00:12:39.578Z,100691.09
2023-05-20T00:15:07.529Z,100693.99
2023-05-20T00:17:34.548Z,100693.55
2023-05-20T00:20:01.425Z,100694.61
2023-05-20T00:22:28.385Z,100694.57
2023-05-20T00:24:55.374Z,100695.70
2023-05-20T00:27:22.330Z,100694.46
2023-05-20T00:29:49.205Z,100693.29
2023-05-20T00:32:16.345Z,100698.44
2023-05-20T00:34:44.142Z,100695.79
2023-05-20T00:37:11.030Z,100695.39
2023-05-20T00:39:37.844Z,100697.55
2023-05-20T00:42:04.813Z,100697.27
2023-05-20T00:44:31.863Z,100694.89
2023-05-20T00:46:58.898Z,100700.98
2023-05-20T00:49:25.751Z,100698.30
2023-05-20T00:51:52.638Z,100697.17
2023-05-20T00:54:19.491Z,100700.39
2023-05-20T00:56:46.693Z,100699.08
2023-05-20T00:59:13.922Z,100694.92
2023-05-20T01:01:41.020Z,100698.09
2023-05-20T01:04:07.824Z,100695.74
2023-05-20T01:06:34.675Z,100701.98
2023-05-20T01:09:01.643Z,100703.04
2023-05-20T01:11:31.500Z,100699.92
2023-05-20T01:14:01.071Z,100697.98
2023-05-20T01:16:28.046Z,100694.04
2023-05-20T01:18:56.225Z,100697.20
2023-05-20T01:21:23.099Z,100695.07
2023-05-20T01:23:49.956Z,100697.16
2023-05-20T01:26:18.996Z,100700.86
2023-05-20T01:28:46.398Z,100699.76
2023-05-20T01:31:26.674Z,100696.45
2023-05-20T01:33:58.559Z,100697.85
2023-05-20T01:36:26.591Z,100698.41
2023-05-20T01:38:53.645Z,100698.25
2023-05-20T01:41:20.914Z,100701.30
2023-05-20T01:43:47.770Z,100703.05
2023-05-20T01:46:15.450Z,100701.36
2023-05-20T01:48:43.080Z,100700.44
2023-05-20T01:51:10.026Z,100698.77
2023-05-20T01:56:17.775Z,100705.73
2023-05-20T01:58:44.696Z,100704.88
2023-05-20T02:01:11.648Z,100709.17
2023-05-20T02:03:38.568Z,100705.53
2023-05-20T02:06:05.475Z,100709.72
2023-05-20T02:08:32.439Z,100709.74
2023-05-20T02:10:59.883Z,100704.58
2023-05-20T02:13:27.895Z,100702.92
2023-05-20T02:15:54.751Z,100704.16
2023-05-20T02:18:21.591Z,100706.46
2023-05-20T02:20:48.536Z,100709.41
2023-05-20T02:23:15.385Z,100706.78
2023-05-20T02:25:42.410Z,100711.70
2023-05-20T02:28:13.569Z,100713.37
2023-05-20T02:30:40.437Z,100712.64
2023-05-20T02:33:09.102Z,100711.66
2023-05-20T02:35:37.012Z,100709.79
2023-05-20T02:38:04.021Z,100709.38
2023-05-20T02:40:30.890Z,100708.48
2023-05-20T02:42:58.710Z,100713.36
2023-05-20T02:45:25.631Z,100716.96
2023-05-20T02:47:52.600Z,100716.73
2023-05-20T02:50:19.666Z,100720.55
2023-05-20T02:52:47.356Z,100722.58
2023-05-20T02:55:14.613Z,100732.02
2023-05-20T02:57:41.636Z,100730.24
2023-05-20T03:00:16.592Z,100724.84
2023-05-20T03:02:43.452Z,100727.11
2023-05-20T03:05:11.047Z,100729.20
2023-05-20T03:07:38.112Z,100728.17
2023-05-20T03:10:08.082Z,100730.68
2023-05-20T03:12:34.880Z,100728.98
2023-05-20T03:15:01.778Z,100730.10
2023-05-20T03:17:28.806Z,100728.55
2023-05-20T03:19:57.306Z,100729.58
2023-05-20T03:22:24.650Z,100727.80
2023-05-20T03:24:53.029Z,100723.77
2023-05-20T03:27:21.495Z,100721.45
2023-05-20T03:29:48.984Z,100722.83
2023-05-20T03:32:17.073Z,100721.09
2023-05-20T03:34:44.078Z,100721.30
2023-05-20T03:37:11.310Z,100718.58
2023-05-20T03:39:38.374Z,100719.00
2023-05-20T03:42:06.058Z,100715.36
2023-05-20T03:44:32.903Z,100710.33
2023-05-20T03:46:59.891Z,100710.86
2023-05-20T03:49:26.921Z,100709.16
2023-05-20T03:51:54.010Z,100707.48
2023-05-20T03:54:21.087Z,100710.89
2023-05-20T03:56:49.942Z,100712.69
2023-05-20T03:59:18.027Z,100706.20
2023-05-20T04:01:45.163Z,100705.46
2023-05-20T04:04:12.293Z,100706.88
2023-05-20T04:06:40.540Z,100708.86
2023-05-20T04:09:07.574Z,100711.09
2023-05-20T04:11:34.606Z,100712.58
2023-05-20T04:14:01.479Z,100713.45
2023-05-20T04:16:29.963Z,100718.89
2023-05-20T04:18:59.296Z,100723.15
2023-05-20T04:21:26.428Z,100723.94
2023-05-20T04:23:53.932Z,100724.06
2023-05-20T04:26:20.876Z,100723.30
2023-05-20T04:28:50.709Z,100718.44
2023-05-20T04:31:18.792Z,100720.75
2023-05-20T04:33:46.880Z,100719.98
2023-05-20T04:36:16.560Z,100716.67
2023-05-20T04:38:44.857Z,100714.73
2023-05-20T04:41:11.831Z,100708.04
2023-05-20T04:43:40.417Z,100713.63
2023-05-20T04:46:07.723Z,100711.90
2023-05-20T04:48:34.810Z,100711.45
2023-05-20T04:51:02.455Z,100716.56
2023-05-20T04:53:31.599Z,100711.95
2023-05-20T04:55:58.455Z,100713.61
2023-05-20T04:58:25.492Z,100710.27
2023-05-20T05:00:53.036Z,100713.17
2023-05-20T05:03:19.939Z,100712.60
2023-05-20T05:05:46.917Z,100712.80
2023-05-20T05:08:14.778Z,100708.63
2023-05-20T05:10:46.811Z,100709.68
2023-05-20T05:13:13.761Z,100712.05
2023-05-20T05:15:40.887Z,100709.79
2023-05-20T05:18:07.821Z,100704.86
2023-05-20T05:20:36.862Z,100704.38
2023-05-20T05:23:03.946Z,100699.47
2023-05-20T05:25:30.964Z,100699.65
2023-05-20T05:27:58.619Z,100701.59
2023-05-20T05:30:25.728Z,100703.39
2023-05-20T05:32:52.954Z,100705.98
2023-05-20T05:35:20.236Z,100713.97
2023-05-20T05:37:47.148Z,100714.13
2023-05-20T05:40:14.092Z,100713.36
2023-05-20T05:42:41.256Z,100709.99
2023-05-20T05:45:09.514Z,100708.95
2023-05-20T05:47:36.525Z,100710.45
2023-05-20T05:50:03.720Z,100707.30
2023-05-20T05:52:32.364Z,100704.61
2023-05-20T05:55:01.199Z,100712.16
2023-05-20T05:57:28.368Z,100708.09
2023-05-20T05:59:55.265Z,100707.05
2023-05-20T06:02:22.958Z,100700.18
2023-05-20T06:04:50.534Z,100700.52
2023-05-20T06:07:18.121Z,100708.01
2023-05-20T06:09:45.522Z,100704.48
2023-05-20T06:12:13.946Z,100707.91
2023-05-20T06:14:41.695Z,100698.65
2023-05-20T06:17:08.613Z,100705.67
2023-05-20T06:19:35.933Z,100698.54
2023-05-20T06:22:03.039Z,100699.27
2023-05-20T06:24:30.069Z,100698.00
2023-05-20T06:26:56.935Z,100694.88
2023-05-20T06:29:24.316Z,100690.83
2023-05-20T06:31:51.202Z,100694.67
2023-05-20T06:34:18.161Z,100695.73
2023-05-20T06:36:45.014Z,100690.52
2023-05-20T06:39:12.722Z,100692.09
2023-05-20T06:41:42.278Z,100689.95
2023-05-20T06:44:10.247Z,100688.27
2023-05-20T06:46:58.950Z,100696.71
2023-05-20T06:49:25.845Z,100699.63
2023-05-20T06:51:52.685Z,100692.94
2023-05-20T06:54:19.572Z,100694.92
2023-05-20T06:56:47.127Z,100690.95
2023-05-20T06:59:15.593Z,100696.77
2023-05-20T07:01:43.620Z,100706.96
2023-05-20T07:04:12.175Z,100691.66
2023-05-20T07:06:39.335Z,100700.70
2023-05-20T07:09:06.222Z,100694.09
2023-05-20T07:11:33.365Z,100702.41
2023-05-20T07:14:00.565Z,100687.23
2023-05-20T07:16:29.824Z,100689.73
2023-05-20T07:18:56.822Z,100693.61
2023-05-20T07:21:24.477Z,100698.27
2023-05-20T07:24:01.468Z,100698.72
2023-05-20T07:26:28.331Z,100697.25
2023-05-20T07:28:55.184Z,100705.95
2023-05-20T07:31:24.336Z,100709.93
2023-05-20T07:33:51.680Z,100700.80
2023-05-20T07:36:18.642Z,100709.08
2023-05-20T07:38:57.048Z,100708.11
2023-05-20T07:41:30.941Z,100706.80
2023-05-20T07:43:58.174Z,100703.08
2023-05-20T07:46:25.226Z,100704.13
2023-05-20T07:48:52.837Z,100700.83
2023-05-20T07:51:20.107Z,100694.90
2023-05-20T07:53:47.131Z,100702.66
2023-05-20T07:56:14.063Z,100702.23
2023-05-20T07:58:42.055Z,100705.02
2023-05-20T08:01:10.207Z,100708.27
2023-05-20T08:03:37.337Z,100703.33
2023-05-20T08:06:09.247Z,100701.83
2023-05-20T08:08:36.488Z,100710.92
2023-05-20T08:11:08.147Z,100699.77
2023-05-20T08:13:35.523Z,100698.68
2023-05-20T08:16:04.737Z,100707.45
2023-05-20T08:18:36.799Z,100708.02
2023-05-20T08:21:05.024Z,100704.05
2023-05-20T08:23:35.065Z,100702.63
2023-05-20T08:26:03.858Z,100688.52
2023-05-20T08:28:31.577Z,100703.52
2023-05-20T08:30:59.268Z,100697.73
2023-05-20T08:33:29.303Z,100701.56
2023-05-20T08:35:56.458Z,100707.12
2023-05-20T08:38:23.281Z,100710.71
2023-05-20T08:40:57.074Z,100704.52
2023-05-20T08:43:25.090Z,100704.41
2023-05-20T08:45:52.881Z,100704.34
2023-05-20T08:48:20.725Z,100702.81
2023-05-20T08:50:51.636Z,100700.38
2023-05-20T08:53:22.666Z,100694.90
2023-05-20T08:56:00.837Z,100696.16
2023-05-20T08:58:31.561Z,100693.33
2023-05-20T09:01:01.480Z,100698.52
2023-05-20T09:03:29.007Z,100700.88
2023-05-20T09:06:04.818Z,100702.27
2023-05-20T09:08:31.728Z,100699.66
2023-05-20T09:10:58.756Z,100697.46
2023-05-20T09:13:25.853Z,100693.32
2023-05-20T09:15:52.888Z,100686.86
2023-05-20T09:18:20.131Z,100693.94
2023-05-20T09:20:53.152Z,100700.13
2023-05-20T09:23:21.821Z,100700.09
2023-05-20T09:25:54.681Z,100701.35
2023-05-20T09:28:26.841Z,100692.16
2023-05-20T09:30:59.149Z,100689.92
2023-05-20T09:33:30.357Z,100690.34
2023-05-20T09:36:24.550Z,100698.73
2023-05-20T09:38:54.850Z,100700.52
2023-05-20T09:41:23.708Z,100691.20
2023-05-20T09:43:51.255Z,100697.55
2023-05-20T09:46:18.163Z,100699.66
2023-05-20T09:48:45.043Z,100696.77
2023-05-20T09:51:12.130Z,100697.39
2023-05-20T09:53:39.078Z,100703.79
2023-05-20T09:56:06.290Z,100705.45
2023-05-20T09:58:34.290Z,100696.15
2023-05-20T10:01:01.370Z,100692.82
2023-05-20T10:03:28.769Z,100699.56
2023-05-20T10:06:20.510Z,100699.54
2023-05-20T10:09:28.584Z,100697.91
2023-05-20T10:12:05.746Z,100689.36
2023-05-20T10:14:42.207Z,100685.73
2023-05-20T10:17:28.515Z,100687.84
2023-05-20T10:19:59.968Z,100688.56
2023-05-20T10:22:31.805Z,100691.91
2023-05-20T10:25:00.539Z,100687.23
2023-05-20T10:27:27.511Z,100680.71
2023-05-20T10:29:57.263Z,100677.71
2023-05-20T10:32:33.427Z,100683.75
2023-05-20T10:35:05.521Z,100680.16
2023-05-20T10:37:46.163Z,100678.08
2023-05-20T10:40:14.334Z,100670.03
2023-05-20T10:42:41.760Z,100672.66
2023-05-20T10:45:09.294Z,100677.66
2023-05-20T10:47:36.598Z,100672.50
2023-05-20T10:50:06.138Z,100677.89
2023-05-20T10:52:42.135Z,100674.16
2023-05-20T10:55:19.687Z,100674.25
2023-05-20T10:57:46.718Z,100676.69
2023-05-20T11:00:14.356Z,100672.25
2023-05-20T11:02:42.189Z,100667.84
2023-05-20T11:05:12.299Z,100673.48
2023-05-20T11:07:39.442Z,100668.80
2023-05-20T11:10:09.523Z,100666.56
2023-05-20T11:12:36.396Z,100677.73
2023-05-20T11:15:03.820Z,100670.35
2023-05-20T11:17:31.089Z,100677.58
2023-05-20T11:20:01.071Z,100674.30
2023-05-20T11:22:28.116Z,100678.67
2023-05-20T11:24:54.974Z,100670.94
2023-05-20T11:27:22.039Z,100670.40
2023-05-20T11:29:50.659Z,100667.25
2023-05-20T11:32:20.299Z,100666.55
2023-05-20T11:34:51.390Z,100661.88
2023-05-20T11:37:18.926Z,100655.73
2023-05-20T11:39:46.264Z,100660.20
2023-05-20T11:42:15.471Z,100658.70
2023-05-20T11:44:45.646Z,100655.81
2023-05-20T11:47:14.875Z,100648.55
2023-05-20T11:49:41.886Z,100660.20
2023-05-20T11:52:11.250Z,100657.06
2023-05-20T11:54:38.107Z,100663.77
2023-05-20T11:57:07.000Z,100661.52
2023-05-20T11:59:34.161Z,100648.05
2023-05-20T12:02:00.935Z,100640.56
2023-05-20T12:04:27.980Z,100646.42
2023-05-20T12:06:55.928Z,100645.84
2023-05-20T12:09:23.693Z,100641.42
2023-05-20T12:11:51.052Z,100644.33
2023-05-20T12:14:17.960Z,100644.96
2023-05-20T12:16:44.771Z,100634.16
2023-05-20T12:19:11.684Z,100641.64
2023-05-20T12:21:38.661Z,100638.11
2023-05-20T12:24:07.252Z,100625.66
2023-05-20T12:26:35.627Z,100636.51
2023-05-20T12:29:02.642Z,100636.11
2023-05-20T12:31:31.016Z,100637.48
2023-05-20T12:33:59.473Z,100630.35
2023-05-20T12:36:28.053Z,100622.73
2023-05-20T12:38:54.946Z,100638.15
2023-05-20T12:41:21.878Z,100613.73
2023-05-20T12:43:48.754Z,100624.19
2023-05-20T12:46:15.629Z,100627.39
2023-05-20T12:48:42.770Z,100610.62
2023-05-20T12:51:09.851Z,100623.13
2023-05-20T12:53:36.703Z,100625.73
2023-05-20T12:56:05.303Z,100625.08
2023-05-20T12:58:33.108Z,100623.89
2023-05-20T13:01:00.046Z,100612.50
2023-05-20T13:03:26.951Z,100603.99
2023-05-20T13:05:53.868Z,100599.21
2023-05-20T13:08:20.720Z,100600.86
2023-05-20T13:10:47.508Z,100606.73
2023-05-20T13:13:21.297Z,100597.17
2023-05-20T13:15:51.623Z,100599.74
2023-05-20T13:18:19.405Z,100607.80
2023-05-20T13:20:46.347Z,100599.06
2023-05-20T13:23:13.264Z,100585.94
2023-05-20T13:25:40.110Z,100577.77
2023-05-20T13:28:08.064Z,100589.93
2023-05-20T13:30:35.080Z,100590.30
2023-05-20T13:33:02.436Z,100596.01
2023-05-20T13:35:29.420Z,100598.83
2023-05-20T13:37:56.328Z,100590.23
2023-05-20T13:40:23.252Z,100600.86
2023-05-20T13:42:50.175Z,100589.80
2023-05-20T13:45:18.699Z,100585.25
2023-05-20T13:47:45.576Z,100588.19
2023-05-20T13:50:12.560Z,100598.63
2023-05-20T13:52:39.490Z,100589.30
2023-05-20T13:55:07.803Z,100579.19
2023-05-20T13:57:34.776Z,100582.97
2023-05-20T14:00:02.022Z,100583.73
2023-05-20T14:02:36.355Z,100585.90
2023-05-20T14:05:03.664Z,100583.95
2023-05-20T14:07:30.556Z,100584.86
2023-05-20T14:09:57.423Z,100593.58
2023-05-20T14:14:28.319Z,100586.92
2023-05-20T14:16:55.347Z,100591.73
2023-05-20T14:19:22.181Z,100588.14
2023-05-20T14:21:49.005Z,100590.92
2023-05-20T14:24:16.090Z,100581.70
2023-05-20T14:26:43.031Z,100584.71
2023-05-20T14:29:10.499Z,100588.09
2023-05-20T14:31:39.379Z,100586.07
2023-05-20T14:34:06.342Z,100585.56
2023-05-20T14:36:33.374Z,100578.85
2023-05-20T14:39:00.221Z,100584.79
2023-05-20T14:41:27.091Z,100574.39
2023-05-20T14:43:53.987Z,100569.15
2023-05-20T14:46:21.335Z,100573.58
2023-05-20T14:48:48.308Z,100563.08
2023-05-20T14:51:15.695Z,100561.00
2023-05-20T14:53:42.583Z,100559.87
2023-05-20T14:56:09.563Z,100545.88
2023-05-20T14:58:36.591Z,100557.08
2023-05-20T15:01:03.512Z,100558.40
2023-05-20T15:03:30.465Z,100554.44
2023-05-20T15:05:57.663Z,100549.90
2023-05-20T15:08:24.541Z,100558.48
2023-05-20T15:10:51.648Z,100561.87
2023-05-20T15:13:18.709Z,100550.29
2023-05-20T15:15:45.778Z,100549.95
2023-05-20T15:18:12.834Z,100544.58
2023-05-20T15:20:40.075Z,100547.41
2023-05-20T15:23:07.448Z,100544.95
2023-05-20T15:25:34.582Z,100540.98
2023-05-20T15:28:01.684Z,100541.02
2023-05-20T15:30:28.576Z,100537.66
2023-05-20T15:32:55.555Z,100541.00
2023-05-20T15:35:22.565Z,100544.53
2023-05-20T15:37:49.473Z,100539.00
2023-05-20T15:40:17.209Z,100539.93
2023-05-20T15:42:44.014Z,100531.52
2023-05-20T15:45:11.497Z,100530.24
2023-05-20T15:47:40.829Z,100533.14
2023-05-20T15:50:09.578Z,100527.47
2023-05-20T15:52:37.090Z,100530.92
2023-05-20T15:55:04.724Z,100529.80
2023-05-20T15:57:31.621Z,100532.59
2023-05-20T15:59:58.672Z,100536.69
2023-05-20T16:02:27.279Z,100540.96
2023-05-20T16:04:54.502Z,100538.06
2023-05-20T16:07:21.326Z,100539.52
2023-05-20T16:09:48.220Z,100536.59
2023-05-20T16:12:16.964Z,100537.90
2023-05-20T16:14:44.936Z,100539.23
2023-05-20T16:17:12.617Z,100541.93
2023-05-20T16:19:39.493Z,100537.11
2023-05-20T16:22:06.517Z,100536.63
2023-05-20T16:24:33.498Z,100533.20
2023-05-20T16:27:00.456Z,100532.09
2023-05-20T16:29:27.356Z,100527.70
2023-05-20T16:31:54.323Z,100533.73
2023-05-20T16:34:21.215Z,100538.11
2023-05-20T16:36:48.124Z,100535.27
2023-05-20T16:39:15.605Z,100539.80
2023-05-20T16:41:42.969Z,100534.71
2023-05-20T16:44:10.345Z,100539.20
2023-05-20T16:46:37.151Z,100534.62
2023-05-20T16:49:04.049Z,100543.02
2023-05-20T16:51:31.534Z,100542.19
2023-05-20T16:53:58.360Z,100536.46
2023-05-20T16:56:25.183Z,100535.33
2023-05-20T16:58:53.268Z,100539.03
2023-05-20T17:01:21.791Z,100539.91
2023-05-20T17:03:49.865Z,100542.71
2023-05-20T17:06:17.738Z,100544.23
2023-05-20T17:08:44.583Z,100542.38
2023-05-20T17:11:11.462Z,100549.92
2023-05-20T17:13:38.504Z,100551.05
2023-05-20T17:16:08.060Z,100548.55
2023-05-20T17:18:36.509Z,100546.39
2023-05-20T17:21:03.453Z,100548.33
2023-05-20T17:23:30.638Z,100538.52
2023-05-20T17:25:57.588Z,100545.58
2023-05-20T17:28:24.450Z,100546.52
2023-05-20T17:30:51.731Z,100544.08
2023-05-20T17:33:18.866Z,100543.48
2023-05-20T17:35:45.931Z,100544.45
2023-05-20T17:38:12.747Z,100543.52
2023-05-20T17:40:39.576Z,100545.52
2023-05-20T17:43:06.485Z,100546.86
2023-05-20T17:45:33.737Z,100547.84
2023-05-20T17:48:01.000Z,100546.78
2023-05-20T17:50:27.964Z,100548.13
2023-05-20T17:52:54.837Z,100552.64
2023-05-20T17:55:22.151Z,100557.56
2023-05-20T17:57:49.329Z,100551.92
2023-05-20T18:00:21.380Z,100555.59
2023-05-20T18:02:48.752Z,100552.60
2023-05-20T18:05:17.050Z,100552.21
2023-05-20T18:07:44.087Z,100552.86
2023-05-20T18:10:11.594Z,100557.34
2023-05-20T18:12:38.424Z,100561.52
2023-05-20T18:15:06.466Z,100566.19
2023-05-20T18:17:33.358Z,100572.85
2023-05-20T18:20:00.637Z,100573.54
2023-05-20T18:22:27.575Z,100579.78
2023-05-20T18:24:54.438Z,100581.27
2023-05-20T18:27:21.553Z,100584.47
2023-05-20T18:29:49.993Z,100587.31
2023-05-20T18:32:16.876Z,100593.61
2023-05-20T18:34:43.762Z,100594.59
2023-05-20T18:37:10.718Z,100596.92
2023-05-20T18:39:37.792Z,100595.52
2023-05-20T18:42:05.321Z,100597.11
2023-05-20T18:44:32.134Z,100600.65
2023-05-20T18:46:58.978Z,100603.99
2023-05-20T18:49:26.256Z,100602.73
2023-05-20T18:51:53.092Z,100603.33
2023-05-20T18:54:20.051Z,100602.89
2023-05-20T18:56:48.560Z,100606.39
2023-05-20T18:59:15.705Z,100602.30
2023-05-20T19:01:42.654Z,100599.14
2023-05-20T19:04:09.588Z,100601.82
2023-05-20T19:06:37.738Z,100601.46
2023-05-20T19:09:04.702Z,100598.90
2023-05-20T19:11:31.682Z,100599.59
2023-05-20T19:13:58.963Z,100600.87
2023-05-20T19:16:26.386Z,100604.39
2023-05-20T19:18:53.367Z,100604.15
2023-05-20T19:21:20.571Z,100604.98
2023-05-20T19:23:48.955Z,100604.78
2023-05-20T19:26:16.013Z,100609.52
2023-05-20T19:28:42.891Z,100608.09
2023-05-20T19:31:09.781Z,100610.20
2023-05-20T19:33:36.964Z,100610.98
2023-05-20T19:36:04.394Z,100608.92
2023-05-20T19:38:31.257Z,100609.71
2023-05-20T19:40:58.200Z,100610.09
2023-05-20T19:43:25.111Z,100614.54
2023-05-20T19:45:52.122Z,100610.86
2023-05-20T19:48:21.439Z,100612.63
2023-05-20T19:50:49.331Z,100616.62
2023-05-20T19:53:16.177Z,100616.36
2023-05-20T19:55:43.605Z,100619.52
2023-05-20T19:58:10.841Z,100624.56
2023-05-20T20:00:38.346Z,100628.09
2023-05-20T20:03:07.689Z,100632.58
2023-05-20T20:05:34.786Z,100628.79
2023-05-20T20:08:02.277Z,100628.35
2023-05-20T20:10:31.046Z,100625.23
2023-05-20T20:12:58.053Z,100620.23
2023-05-20T20:15:25.793Z,100620.25
2023-05-20T20:17:52.761Z,100617.52
2023-05-20T20:20:19.875Z,100622.59
2023-05-20T20:22:46.888Z,100622.55
2023-05-20T20:25:14.104Z,100617.13
2023-05-20T20:27:44.142Z,100616.80
2023-05-20T20:30:13.100Z,100616.87
2023-05-20T20:32:40.904Z,100611.80
2023-05-20T20:35:08.549Z,100609.14
2023-05-20T20:37:36.377Z,100612.77
2023-05-20T20:40:04.489Z,100614.02
2023-05-20T20:42:32.360Z,100614.75
2023-05-20T20:44:59.474Z,100617.92
2023-05-20T20:47:29.303Z,100619.41
2023-05-20T20:49:56.831Z,100619.20
2023-05-20T20:52:23.916Z,100621.13
2023-05-20T20:54:50.766Z,100615.26
2023-05-20T20:57:17.704Z,100613.67
2023-05-20T20:59:48.019Z,100618.31
2023-05-20T21:02:15.622Z,100612.68
2023-05-20T21:04:43.187Z,100617.16
2023-05-20T21:07:10.364Z,100607.40
2023-05-20T21:09:37.631Z,100611.98
2023-05-20T21:12:06.926Z,100609.06
2023-05-20T21:14:33.879Z,100608.83
2023-05-20T21:17:01.077Z,100613.21
2023-05-20T21:19:28.569Z,100617.98
2023-05-20T21:21:56.057Z,100617.48
2023-05-20T21:24:23.005Z,100618.56
2023-05-20T21:26:49.837Z,100619.76
2023-05-20T21:29:16.748Z,100617.55
2023-05-20T21:31:43.628Z,100618.23
2023-05-20T21:34:10.506Z,100624.81
2023-05-20T21:36:37.450Z,100623.23
2023-05-20T21:39:04.410Z,100620.52
2023-05-20T21:41:31.306Z,100619.10
2023-05-20T21:43:58.216Z,100624.09
2023-05-20T21:46:25.092Z,100621.16
2023-05-20T21:48:52.113Z,100623.29
2023-05-20T21:51:18.935Z,100620.13
2023-05-20T21:53:45.908Z,100624.80
2023-05-20T21:56:12.842Z,100623.38
2023-05-20T21:58:41.753Z,100627.42
2023-05-20T22:01:10.029Z,100631.84
2023-05-20T22:03:38.528Z,100637.13
2023-05-20T22:06:06.246Z,100629.97
2023-05-20T22:08:36.048Z,100632.31
2023-05-20T22:11:07.373Z,100632.64
2023-05-20T22:13:35.416Z,100631.94
2023-05-20T22:16:04.927Z,100630.84
2023-05-20T22:18:32.145Z,100626.41
2023-05-20T22:21:01.933Z,100622.17
2023-05-20T22:23:28.959Z,100622.23
2023-05-20T22:25:55.991Z,100628.51
2023-05-20T22:28:23.835Z,100627.02
2023-05-20T22:30:51.694Z,100624.98
2023-05-20T22:33:18.746Z,100621.02
2023-05-20T22:35:45.831Z,100616.48
2023-05-20T22:38:12.676Z,100619.47
2023-05-20T22:40:39.555Z,100617.10
2023-05-20T22:43:06.471Z,100622.59
2023-05-20T22:45:33.613Z,100620.54
2023-05-20T22:48:01.925Z,100618.80
2023-05-20T22:50:28.992Z,100619.96
2023-05-20T22:52:56.189Z,100606.56
2023-05-20T22:55:24.122Z,100616.14
2023-05-20T22:57:50.970Z,100613.52
2023-05-20T23:00:18.306Z,100619.29
2023-05-20T23:02:50.014Z,100620.77
2023-05-20T23:05:17.434Z,100618.33
2023-05-20T23:07:45.089Z,100620.02
2023-05-20T23:10:12.148Z,100619.77
2023-05-20T23:12:39.151Z,100619.14
2023-05-20T23:15:06.961Z,100613.13
2023-05-20T23:17:33.804Z,100611.96
2023-05-20T23:20:01.217Z,100608.78
2023-05-20T23:22:28.298Z,100609.97
2023-05-20T23:24:55.125Z,100612.74
2023-05-20T23:27:21.948Z,100615.10
2023-05-20T23:29:48.813Z,100615.14
2023-05-20T23:32:15.820Z,100620.65
2023-05-20T23:34:43.779Z,100620.70
2023-05-20T23:37:10.695Z,100620.99
2023-05-20T23:39:37.981Z,100617.02
2023-05-20T23:42:05.511Z,100615.58
2023-05-20T23:44:32.380Z,100619.47
2023-05-20T23:46:59.260Z,100620.52
2023-05-20T23:49:27.297Z,100623.50
2023-05-20T23:51:54.254Z,100621.09
2023-05-20T23:54:21.282Z,100619.92
2023-05-20T23:56:48.501Z,100619.40
2023-05-20T23:59:15.801Z,100616.89
